sensor_id;sensor_type;location;lat;lon;timestamp;P1;durP1;ratioP1;P2;durP2;ratioP2
36191;SDS011;22233;42.708;23.360;2024-03-22T00:02:07;19.52;;;12.93;;
36191;SDS011;22233;42.708;23.360;2024-03-22T00:04:34;19.27;;;13.13;;
36191;SDS011;22233;42.708;23.360;2024-03-22T00:06:59;20.33;;;11.73;;
36191;SDS011;22233;42.708;23.360;2024-03-22T00:09:24;23.30;;;13.32;;
36191;SDS011;22233;42.708;23.360;2024-03-22T00:11:50;23.77;;;12.80;;
36191;SDS011;22233;42.708;23.360;2024-03-22T00:14:15;15.93;;;11.38;;
36191;SDS011;22233;42.708;23.360;2024-03-22T00:16:40;17.30;;;11.05;;
36191;SDS011;22233;42.708;23.360;2024-03-22T00:19:06;19.65;;;12.43;;
36191;SDS011;22233;42.708;23.360;2024-03-22T00:21:31;20.63;;;11.55;;
36191;SDS011;22233;42.708;23.360;2024-03-22T00:23:57;18.05;;;11.13;;
36191;SDS011;22233;42.708;23.360;2024-03-22T00:26:22;18.20;;;10.65;;
36191;SDS011;22233;42.708;23.360;2024-03-22T00:28:48;16.42;;;9.95;;
36191;SDS011;22233;42.708;23.360;2024-03-22T00:31:14;16.35;;;10.55;;
36191;SDS011;22233;42.708;23.360;2024-03-22T00:33:39;15.45;;;10.35;;
36191;SDS011;22233;42.708;23.360;2024-03-22T00:36:05;16.20;;;10.82;;
36191;SDS011;22233;42.708;23.360;2024-03-22T00:38:31;16.10;;;10.48;;
36191;SDS011;22233;42.708;23.360;2024-03-22T00:40:56;17.90;;;10.93;;
36191;SDS011;22233;42.708;23.360;2024-03-22T00:43:22;16.60;;;11.35;;
36191;SDS011;22233;42.708;23.360;2024-03-22T00:45:47;15.90;;;11.80;;
36191;SDS011;22233;42.708;23.360;2024-03-22T00:48:13;16.90;;;11.68;;
36191;SDS011;22233;42.708;23.360;2024-03-22T00:50:38;18.67;;;11.13;;
36191;SDS011;22233;42.708;23.360;2024-03-22T00:53:04;18.13;;;12.13;;
36191;SDS011;22233;42.708;23.360;2024-03-22T00:55:30;15.15;;;10.27;;
36191;SDS011;22233;42.708;23.360;2024-03-22T00:57:56;15.63;;;11.23;;
36191;SDS011;22233;42.708;23.360;2024-03-22T01:00:22;19.20;;;11.93;;
36191;SDS011;22233;42.708;23.360;2024-03-22T01:02:47;19.25;;;11.57;;
36191;SDS011;22233;42.708;23.360;2024-03-22T01:05:13;17.90;;;11.93;;
36191;SDS011;22233;42.708;23.360;2024-03-22T01:07:39;20.73;;;12.18;;
36191;SDS011;22233;42.708;23.360;2024-03-22T01:10:05;15.85;;;11.63;;
36191;SDS011;22233;42.708;23.360;2024-03-22T01:12:30;17.40;;;12.00;;
36191;SDS011;22233;42.708;23.360;2024-03-22T01:14:56;22.48;;;12.55;;
36191;SDS011;22233;42.708;23.360;2024-03-22T01:17:22;22.83;;;12.90;;
36191;SDS011;22233;42.708;23.360;2024-03-22T01:19:47;21.25;;;12.68;;
36191;SDS011;22233;42.708;23.360;2024-03-22T01:22:13;24.52;;;14.23;;
36191;SDS011;22233;42.708;23.360;2024-03-22T01:24:38;24.70;;;16.00;;
36191;SDS011;22233;42.708;23.360;2024-03-22T01:27:04;31.38;;;15.65;;
36191;SDS011;22233;42.708;23.360;2024-03-22T01:29:29;27.25;;;14.52;;
36191;SDS011;22233;42.708;23.360;2024-03-22T01:31:57;21.33;;;12.83;;
36191;SDS011;22233;42.708;23.360;2024-03-22T01:34:23;26.83;;;14.32;;
36191;SDS011;22233;42.708;23.360;2024-03-22T01:36:48;22.52;;;15.30;;
36191;SDS011;22233;42.708;23.360;2024-03-22T01:39:13;26.42;;;15.13;;
36191;SDS011;22233;42.708;23.360;2024-03-22T01:41:40;28.58;;;14.82;;
36191;SDS011;22233;42.708;23.360;2024-03-22T01:44:06;27.52;;;14.27;;
36191;SDS011;22233;42.708;23.360;2024-03-22T01:46:31;32.03;;;16.90;;
36191;SDS011;22233;42.708;23.360;2024-03-22T01:48:57;31.52;;;16.25;;
36191;SDS011;22233;42.708;23.360;2024-03-22T01:51:22;28.52;;;16.48;;
36191;SDS011;22233;42.708;23.360;2024-03-22T01:53:48;28.48;;;15.90;;
36191;SDS011;22233;42.708;23.360;2024-03-22T01:56:13;25.38;;;14.63;;
36191;SDS011;22233;42.708;23.360;2024-03-22T01:58:39;26.25;;;13.88;;
36191;SDS011;22233;42.708;23.360;2024-03-22T02:01:05;25.45;;;16.60;;
36191;SDS011;22233;42.708;23.360;2024-03-22T02:03:31;24.60;;;15.50;;
36191;SDS011;22233;42.708;23.360;2024-03-22T02:05:56;28.27;;;16.20;;
36191;SDS011;22233;42.708;23.360;2024-03-22T02:08:21;25.92;;;16.38;;
36191;SDS011;22233;42.708;23.360;2024-03-22T02:10:47;25.75;;;17.42;;
36191;SDS011;22233;42.708;23.360;2024-03-22T02:13:12;32.78;;;18.42;;
36191;SDS011;22233;42.708;23.360;2024-03-22T02:15:37;27.88;;;17.38;;
36191;SDS011;22233;42.708;23.360;2024-03-22T02:18:03;28.67;;;18.30;;
36191;SDS011;22233;42.708;23.360;2024-03-22T02:20:28;26.80;;;16.75;;
36191;SDS011;22233;42.708;23.360;2024-03-22T02:22:54;30.38;;;16.40;;
36191;SDS011;22233;42.708;23.360;2024-03-22T02:25:19;22.60;;;14.90;;
36191;SDS011;22233;42.708;23.360;2024-03-22T02:27:45;20.23;;;13.68;;
36191;SDS011;22233;42.708;23.360;2024-03-22T02:30:10;22.92;;;14.68;;
36191;SDS011;22233;42.708;23.360;2024-03-22T02:32:35;23.83;;;14.43;;
36191;SDS011;22233;42.708;23.360;2024-03-22T02:35:02;24.13;;;15.20;;
36191;SDS011;22233;42.708;23.360;2024-03-22T02:37:28;20.08;;;14.73;;
36191;SDS011;22233;42.708;23.360;2024-03-22T02:39:53;21.65;;;14.18;;
36191;SDS011;22233;42.708;23.360;2024-03-22T02:42:18;24.50;;;14.55;;
36191;SDS011;22233;42.708;23.360;2024-03-22T02:44:44;25.88;;;15.02;;
36191;SDS011;22233;42.708;23.360;2024-03-22T02:47:09;24.38;;;15.00;;
36191;SDS011;22233;42.708;23.360;2024-03-22T02:49:35;21.55;;;13.88;;
36191;SDS011;22233;42.708;23.360;2024-03-22T02:52:00;20.17;;;13.20;;
36191;SDS011;22233;42.708;23.360;2024-03-22T02:54:26;21.60;;;11.98;;
36191;SDS011;22233;42.708;23.360;2024-03-22T02:56:51;18.92;;;11.82;;
36191;SDS011;22233;42.708;23.360;2024-03-22T02:59:17;18.83;;;11.48;;
36191;SDS011;22233;42.708;23.360;2024-03-22T03:01:42;14.73;;;10.57;;
36191;SDS011;22233;42.708;23.360;2024-03-22T03:04:08;15.88;;;10.88;;
36191;SDS011;22233;42.708;23.360;2024-03-22T03:06:33;13.45;;;10.35;;
36191;SDS011;22233;42.708;23.360;2024-03-22T03:08:58;15.15;;;10.70;;
36191;SDS011;22233;42.708;23.360;2024-03-22T03:11:24;17.00;;;12.40;;
36191;SDS011;22233;42.708;23.360;2024-03-22T03:13:49;19.17;;;11.82;;
36191;SDS011;22233;42.708;23.360;2024-03-22T03:16:14;16.55;;;11.70;;
36191;SDS011;22233;42.708;23.360;2024-03-22T03:18:40;22.05;;;12.98;;
36191;SDS011;22233;42.708;23.360;2024-03-22T03:21:06;18.35;;;12.05;;
36191;SDS011;22233;42.708;23.360;2024-03-22T03:23:31;16.60;;;10.48;;
36191;SDS011;22233;42.708;23.360;2024-03-22T03:25:57;15.77;;;9.27;;
36191;SDS011;22233;42.708;23.360;2024-03-22T03:28:22;15.00;;;9.88;;
36191;SDS011;22233;42.708;23.360;2024-03-22T03:30:47;13.25;;;8.48;;
36191;SDS011;22233;42.708;23.360;2024-03-22T03:33:13;14.40;;;9.38;;
36191;SDS011;22233;42.708;23.360;2024-03-22T03:35:38;13.70;;;8.35;;
36191;SDS011;22233;42.708;23.360;2024-03-22T03:38:03;10.27;;;7.72;;
36191;SDS011;22233;42.708;23.360;2024-03-22T03:40:29;10.48;;;7.03;;
36191;SDS011;22233;42.708;23.360;2024-03-22T03:42:54;9.43;;;6.85;;
36191;SDS011;22233;42.708;23.360;2024-03-22T03:45:19;11.40;;;7.60;;
36191;SDS011;22233;42.708;23.360;2024-03-22T03:47:45;10.27;;;6.85;;
36191;SDS011;22233;42.708;23.360;2024-03-22T03:50:11;8.45;;;5.97;;
36191;SDS011;22233;42.708;23.360;2024-03-22T03:52:37;9.15;;;6.45;;
36191;SDS011;22233;42.708;23.360;2024-03-22T03:55:02;11.25;;;7.28;;
36191;SDS011;22233;42.708;23.360;2024-03-22T03:57:28;10.77;;;7.15;;
36191;SDS011;22233;42.708;23.360;2024-03-22T03:59:54;8.75;;;6.63;;
36191;SDS011;22233;42.708;23.360;2024-03-22T04:02:19;9.18;;;6.22;;
36191;SDS011;22233;42.708;23.360;2024-03-22T04:04:44;11.70;;;7.53;;
36191;SDS011;22233;42.708;23.360;2024-03-22T04:07:10;13.85;;;8.48;;
36191;SDS011;22233;42.708;23.360;2024-03-22T04:09:35;13.32;;;9.10;;
36191;SDS011;22233;42.708;23.360;2024-03-22T04:12:00;12.75;;;8.20;;
36191;SDS011;22233;42.708;23.360;2024-03-22T04:14:26;14.38;;;8.60;;
36191;SDS011;22233;42.708;23.360;2024-03-22T04:16:51;15.30;;;9.15;;
36191;SDS011;22233;42.708;23.360;2024-03-22T04:21:45;16.00;;;10.07;;
36191;SDS011;22233;42.708;23.360;2024-03-22T04:24:10;15.13;;;9.13;;
36191;SDS011;22233;42.708;23.360;2024-03-22T04:26:35;14.98;;;9.15;;
36191;SDS011;22233;42.708;23.360;2024-03-22T04:29:00;16.25;;;8.93;;
36191;SDS011;22233;42.708;23.360;2024-03-22T04:31:26;18.05;;;10.05;;
36191;SDS011;22233;42.708;23.360;2024-03-22T04:33:51;17.98;;;9.52;;
36191;SDS011;22233;42.708;23.360;2024-03-22T04:36:17;18.05;;;9.07;;
36191;SDS011;22233;42.708;23.360;2024-03-22T04:38:42;16.38;;;9.52;;
36191;SDS011;22233;42.708;23.360;2024-03-22T04:41:07;14.00;;;9.68;;
36191;SDS011;22233;42.708;23.360;2024-03-22T04:43:33;14.30;;;9.50;;
36191;SDS011;22233;42.708;23.360;2024-03-22T04:45:58;15.77;;;9.63;;
36191;SDS011;22233;42.708;23.360;2024-03-22T04:48:24;15.45;;;9.13;;
36191;SDS011;22233;42.708;23.360;2024-03-22T04:50:50;23.27;;;11.48;;
36191;SDS011;22233;42.708;23.360;2024-03-22T04:53:17;20.45;;;12.82;;
36191;SDS011;22233;42.708;23.360;2024-03-22T04:55:43;23.15;;;12.48;;
36191;SDS011;22233;42.708;23.360;2024-03-22T04:58:19;24.88;;;13.70;;
36191;SDS011;22233;42.708;23.360;2024-03-22T05:00:46;18.98;;;11.13;;
36191;SDS011;22233;42.708;23.360;2024-03-22T05:03:12;21.30;;;11.80;;
36191;SDS011;22233;42.708;23.360;2024-03-22T05:05:38;17.23;;;11.10;;
36191;SDS011;22233;42.708;23.360;2024-03-22T05:08:04;20.55;;;10.82;;
36191;SDS011;22233;42.708;23.360;2024-03-22T05:10:30;17.50;;;9.48;;
36191;SDS011;22233;42.708;23.360;2024-03-22T05:12:56;12.43;;;9.10;;
36191;SDS011;22233;42.708;23.360;2024-03-22T05:15:22;15.57;;;9.98;;
36191;SDS011;22233;42.708;23.360;2024-03-22T05:17:48;18.20;;;10.07;;
36191;SDS011;22233;42.708;23.360;2024-03-22T05:20:14;18.15;;;10.38;;
36191;SDS011;22233;42.708;23.360;2024-03-22T05:22:40;20.70;;;9.90;;
36191;SDS011;22233;42.708;23.360;2024-03-22T05:25:05;16.00;;;9.43;;
36191;SDS011;22233;42.708;23.360;2024-03-22T05:27:31;14.88;;;10.40;;
36191;SDS011;22233;42.708;23.360;2024-03-22T05:29:57;17.88;;;10.20;;
36191;SDS011;22233;42.708;23.360;2024-03-22T05:32:23;19.67;;;10.57;;
36191;SDS011;22233;42.708;23.360;2024-03-22T05:34:49;16.92;;;9.50;;
36191;SDS011;22233;42.708;23.360;2024-03-22T05:37:15;18.70;;;10.13;;
36191;SDS011;22233;42.708;23.360;2024-03-22T05:39:40;21.90;;;8.93;;
36191;SDS011;22233;42.708;23.360;2024-03-22T05:42:06;16.55;;;9.98;;
36191;SDS011;22233;42.708;23.360;2024-03-22T05:44:31;16.15;;;10.05;;
36191;SDS011;22233;42.708;23.360;2024-03-22T05:46:57;23.52;;;9.23;;
36191;SDS011;22233;42.708;23.360;2024-03-22T05:49:22;23.30;;;10.75;;
36191;SDS011;22233;42.708;23.360;2024-03-22T05:51:48;23.45;;;12.23;;
36191;SDS011;22233;42.708;23.360;2024-03-22T05:54:13;26.65;;;14.32;;
36191;SDS011;22233;42.708;23.360;2024-03-22T05:56:39;20.15;;;13.00;;
36191;SDS011;22233;42.708;23.360;2024-03-22T05:59:04;20.92;;;11.32;;
36191;SDS011;22233;42.708;23.360;2024-03-22T06:01:30;19.75;;;10.40;;
36191;SDS011;22233;42.708;23.360;2024-03-22T06:03:55;21.15;;;12.27;;
36191;SDS011;22233;42.708;23.360;2024-03-22T06:06:20;19.52;;;10.40;;
36191;SDS011;22233;42.708;23.360;2024-03-22T06:08:50;15.70;;;10.20;;
36191;SDS011;22233;42.708;23.360;2024-03-22T06:13:43;17.65;;;9.52;;
36191;SDS011;22233;42.708;23.360;2024-03-22T06:16:09;16.75;;;8.95;;
36191;SDS011;22233;42.708;23.360;2024-03-22T06:18:34;15.45;;;8.88;;
36191;SDS011;22233;42.708;23.360;2024-03-22T06:20:59;17.88;;;9.50;;
36191;SDS011;22233;42.708;23.360;2024-03-22T06:23:25;15.35;;;9.90;;
36191;SDS011;22233;42.708;23.360;2024-03-22T06:25:53;15.27;;;9.20;;
36191;SDS011;22233;42.708;23.360;2024-03-22T06:28:20;16.60;;;8.68;;
36191;SDS011;22233;42.708;23.360;2024-03-22T06:30:45;13.65;;;8.43;;
36191;SDS011;22233;42.708;23.360;2024-03-22T06:33:11;11.10;;;8.38;;
36191;SDS011;22233;42.708;23.360;2024-03-22T06:35:36;16.95;;;8.77;;
36191;SDS011;22233;42.708;23.360;2024-03-22T06:38:02;17.10;;;8.68;;
36191;SDS011;22233;42.708;23.360;2024-03-22T06:40:28;13.02;;;8.77;;
36191;SDS011;22233;42.708;23.360;2024-03-22T06:42:53;20.17;;;9.02;;
36191;SDS011;22233;42.708;23.360;2024-03-22T06:45:19;15.30;;;9.77;;
36191;SDS011;22233;42.708;23.360;2024-03-22T06:47:44;19.08;;;9.73;;
36191;SDS011;22233;42.708;23.360;2024-03-22T06:50:10;17.73;;;9.93;;
36191;SDS011;22233;42.708;23.360;2024-03-22T06:52:36;18.05;;;8.88;;
36191;SDS011;22233;42.708;23.360;2024-03-22T06:55:01;20.50;;;9.77;;
36191;SDS011;22233;42.708;23.360;2024-03-22T06:57:28;16.90;;;8.38;;
36191;SDS011;22233;42.708;23.360;2024-03-22T06:59:53;15.90;;;8.73;;
36191;SDS011;22233;42.708;23.360;2024-03-22T07:02:19;21.63;;;9.40;;
36191;SDS011;22233;42.708;23.360;2024-03-22T07:04:45;20.90;;;9.63;;
36191;SDS011;22233;42.708;23.360;2024-03-22T07:07:10;19.02;;;9.75;;
36191;SDS011;22233;42.708;23.360;2024-03-22T07:09:36;14.65;;;8.35;;
36191;SDS011;22233;42.708;23.360;2024-03-22T07:12:01;17.13;;;7.72;;
36191;SDS011;22233;42.708;23.360;2024-03-22T07:14:27;12.60;;;8.10;;
36191;SDS011;22233;42.708;23.360;2024-03-22T07:16:52;12.27;;;7.72;;
36191;SDS011;22233;42.708;23.360;2024-03-22T07:19:19;13.75;;;7.60;;
36191;SDS011;22233;42.708;23.360;2024-03-22T07:21:47;11.75;;;7.03;;
36191;SDS011;22233;42.708;23.360;2024-03-22T07:24:13;13.23;;;7.60;;
36191;SDS011;22233;42.708;23.360;2024-03-22T07:26:39;9.10;;;6.47;;
36191;SDS011;22233;42.708;23.360;2024-03-22T07:29:04;11.50;;;6.65;;
36191;SDS011;22233;42.708;23.360;2024-03-22T07:31:29;11.75;;;7.50;;
36191;SDS011;22233;42.708;23.360;2024-03-22T07:33:55;9.15;;;6.25;;
36191;SDS011;22233;42.708;23.360;2024-03-22T07:36:20;12.23;;;6.78;;
36191;SDS011;22233;42.708;23.360;2024-03-22T07:38:46;10.52;;;6.25;;
36191;SDS011;22233;42.708;23.360;2024-03-22T07:43:39;9.00;;;6.72;;
36191;SDS011;22233;42.708;23.360;2024-03-22T07:46:04;13.63;;;6.72;;
36191;SDS011;22233;42.708;23.360;2024-03-22T07:48:30;11.32;;;6.97;;
36191;SDS011;22233;42.708;23.360;2024-03-22T07:50:57;11.85;;;7.40;;
36191;SDS011;22233;42.708;23.360;2024-03-22T07:53:23;14.93;;;7.05;;
36191;SDS011;22233;42.708;23.360;2024-03-22T07:55:49;13.32;;;6.85;;
36191;SDS011;22233;42.708;23.360;2024-03-22T07:58:14;7.25;;;4.32;;
36191;SDS011;22233;42.708;23.360;2024-03-22T08:00:40;9.20;;;5.40;;
36191;SDS011;22233;42.708;23.360;2024-03-22T08:03:05;8.07;;;5.25;;
36191;SDS011;22233;42.708;23.360;2024-03-22T08:05:31;8.93;;;5.35;;
36191;SDS011;22233;42.708;23.360;2024-03-22T08:07:56;6.65;;;4.03;;
36191;SDS011;22233;42.708;23.360;2024-03-22T08:10:22;7.07;;;4.45;;
36191;SDS011;22233;42.708;23.360;2024-03-22T08:12:48;9.60;;;4.60;;
36191;SDS011;22233;42.708;23.360;2024-03-22T08:15:14;6.25;;;4.68;;
36191;SDS011;22233;42.708;23.360;2024-03-22T08:17:39;7.40;;;4.80;;
36191;SDS011;22233;42.708;23.360;2024-03-22T08:20:05;4.57;;;4.15;;
36191;SDS011;22233;42.708;23.360;2024-03-22T08:22:31;5.32;;;3.42;;
36191;SDS011;22233;42.708;23.360;2024-03-22T08:24:57;5.70;;;3.65;;
36191;SDS011;22233;42.708;23.360;2024-03-22T08:27:22;4.57;;;2.97;;
36191;SDS011;22233;42.708;23.360;2024-03-22T08:29:48;4.80;;;2.88;;
36191;SDS011;22233;42.708;23.360;2024-03-22T08:32:13;3.90;;;3.20;;
36191;SDS011;22233;42.708;23.360;2024-03-22T08:34:38;5.43;;;3.42;;
36191;SDS011;22233;42.708;23.360;2024-03-22T08:37:04;3.72;;;3.33;;
36191;SDS011;22233;42.708;23.360;2024-03-22T08:39:29;5.50;;;3.17;;
36191;SDS011;22233;42.708;23.360;2024-03-22T08:41:55;4.65;;;3.10;;
36191;SDS011;22233;42.708;23.360;2024-03-22T08:44:20;4.30;;;3.22;;
36191;SDS011;22233;42.708;23.360;2024-03-22T08:46:46;4.35;;;3.65;;
36191;SDS011;22233;42.708;23.360;2024-03-22T08:49:12;7.28;;;3.05;;
36191;SDS011;22233;42.708;23.360;2024-03-22T08:51:38;3.15;;;2.67;;
36191;SDS011;22233;42.708;23.360;2024-03-22T08:54:05;3.57;;;3.20;;
36191;SDS011;22233;42.708;23.360;2024-03-22T08:56:30;7.38;;;3.72;;
36191;SDS011;22233;42.708;23.360;2024-03-22T08:58:55;5.53;;;3.35;;
36191;SDS011;22233;42.708;23.360;2024-03-22T09:01:21;4.22;;;3.78;;
36191;SDS011;22233;42.708;23.360;2024-03-22T09:03:47;3.50;;;3.17;;
36191;SDS011;22233;42.708;23.360;2024-03-22T09:06:14;5.30;;;3.15;;
36191;SDS011;22233;42.708;23.360;2024-03-22T09:08:39;4.72;;;3.05;;
36191;SDS011;22233;42.708;23.360;2024-03-22T09:11:05;5.65;;;4.25;;
36191;SDS011;22233;42.708;23.360;2024-03-22T09:13:30;5.07;;;3.20;;
36191;SDS011;22233;42.708;23.360;2024-03-22T09:15:57;5.88;;;2.97;;
36191;SDS011;22233;42.708;23.360;2024-03-22T09:18:24;4.05;;;3.00;;
36191;SDS011;22233;42.708;23.360;2024-03-22T09:20:49;3.35;;;2.65;;
36191;SDS011;22233;42.708;23.360;2024-03-22T09:23:15;5.28;;;2.83;;
36191;SDS011;22233;42.708;23.360;2024-03-22T09:25:40;3.63;;;2.95;;
36191;SDS011;22233;42.708;23.360;2024-03-22T09:28:06;3.15;;;2.85;;
36191;SDS011;22233;42.708;23.360;2024-03-22T09:30:31;3.72;;;2.90;;
36191;SDS011;22233;42.708;23.360;2024-03-22T09:32:56;4.90;;;2.65;;
36191;SDS011;22233;42.708;23.360;2024-03-22T09:35:22;7.28;;;3.78;;
36191;SDS011;22233;42.708;23.360;2024-03-22T09:37:48;4.28;;;2.78;;
36191;SDS011;22233;42.708;23.360;2024-03-22T09:40:13;6.07;;;3.00;;
36191;SDS011;22233;42.708;23.360;2024-03-22T09:42:39;3.85;;;2.90;;
36191;SDS011;22233;42.708;23.360;2024-03-22T09:45:09;5.05;;;2.78;;
36191;SDS011;22233;42.708;23.360;2024-03-22T09:47:36;4.35;;;3.35;;
36191;SDS011;22233;42.708;23.360;2024-03-22T09:50:03;5.70;;;2.92;;
36191;SDS011;22233;42.708;23.360;2024-03-22T09:52:31;3.42;;;2.70;;
36191;SDS011;22233;42.708;23.360;2024-03-22T09:54:58;4.68;;;3.30;;
36191;SDS011;22233;42.708;23.360;2024-03-22T09:57:23;4.45;;;3.03;;
36191;SDS011;22233;42.708;23.360;2024-03-22T09:59:49;9.38;;;3.25;;
36191;SDS011;22233;42.708;23.360;2024-03-22T10:02:15;4.60;;;2.78;;
36191;SDS011;22233;42.708;23.360;2024-03-22T10:04:42;3.75;;;2.65;;
36191;SDS011;22233;42.708;23.360;2024-03-22T10:07:08;4.75;;;2.90;;
36191;SDS011;22233;42.708;23.360;2024-03-22T10:09:35;7.95;;;3.08;;
36191;SDS011;22233;42.708;23.360;2024-03-22T10:12:00;3.33;;;3.03;;
36191;SDS011;22233;42.708;23.360;2024-03-22T10:14:26;4.35;;;2.85;;
36191;SDS011;22233;42.708;23.360;2024-03-22T10:16:52;4.22;;;2.78;;
36191;SDS011;22233;42.708;23.360;2024-03-22T10:19:21;4.45;;;2.80;;
36191;SDS011;22233;42.708;23.360;2024-03-22T10:22:02;4.50;;;3.65;;
36191;SDS011;22233;42.708;23.360;2024-03-22T10:24:29;4.28;;;2.80;;
36191;SDS011;22233;42.708;23.360;2024-03-22T10:26:55;4.83;;;2.80;;
36191;SDS011;22233;42.708;23.360;2024-03-22T10:29:21;3.15;;;2.40;;
36191;SDS011;22233;42.708;23.360;2024-03-22T10:31:47;4.15;;;3.10;;
36191;SDS011;22233;42.708;23.360;2024-03-22T10:34:13;3.85;;;3.08;;
36191;SDS011;22233;42.708;23.360;2024-03-22T10:36:39;3.53;;;2.80;;
36191;SDS011;22233;42.708;23.360;2024-03-22T10:39:05;4.50;;;2.95;;
36191;SDS011;22233;42.708;23.360;2024-03-22T10:41:33;3.47;;;2.22;;
36191;SDS011;22233;42.708;23.360;2024-03-22T10:43:58;3.75;;;2.60;;
36191;SDS011;22233;42.708;23.360;2024-03-22T10:46:28;3.88;;;2.40;;
36191;SDS011;22233;42.708;23.360;2024-03-22T10:48:55;3.90;;;2.78;;
36191;SDS011;22233;42.708;23.360;2024-03-22T10:51:21;4.95;;;2.95;;
36191;SDS011;22233;42.708;23.360;2024-03-22T10:53:49;3.45;;;2.30;;
36191;SDS011;22233;42.708;23.360;2024-03-22T10:56:16;4.40;;;2.60;;
36191;SDS011;22233;42.708;23.360;2024-03-22T10:58:43;3.38;;;2.70;;
36191;SDS011;22233;42.708;23.360;2024-03-22T11:01:21;3.55;;;2.72;;
36191;SDS011;22233;42.708;23.360;2024-03-22T11:03:48;3.67;;;2.85;;
36191;SDS011;22233;42.708;23.360;2024-03-22T11:06:13;5.13;;;2.72;;
36191;SDS011;22233;42.708;23.360;2024-03-22T11:08:43;4.78;;;2.50;;
36191;SDS011;22233;42.708;23.360;2024-03-22T11:11:09;3.05;;;2.47;;
36191;SDS011;22233;42.708;23.360;2024-03-22T11:13:36;5.65;;;2.60;;
36191;SDS011;22233;42.708;23.360;2024-03-22T11:16:01;5.53;;;2.22;;
36191;SDS011;22233;42.708;23.360;2024-03-22T11:18:27;3.47;;;2.40;;
36191;SDS011;22233;42.708;23.360;2024-03-22T11:20:53;3.58;;;2.63;;
36191;SDS011;22233;42.708;23.360;2024-03-22T11:23:19;5.05;;;3.03;;
36191;SDS011;22233;42.708;23.360;2024-03-22T11:25:44;3.58;;;2.67;;
36191;SDS011;22233;42.708;23.360;2024-03-22T11:28:11;6.23;;;3.13;;
36191;SDS011;22233;42.708;23.360;2024-03-22T11:30:37;5.15;;;3.30;;
36191;SDS011;22233;42.708;23.360;2024-03-22T11:33:03;3.10;;;2.55;;
36191;SDS011;22233;42.708;23.360;2024-03-22T11:35:30;5.43;;;2.72;;
36191;SDS011;22233;42.708;23.360;2024-03-22T11:37:56;4.50;;;2.80;;
36191;SDS011;22233;42.708;23.360;2024-03-22T11:40:23;4.85;;;2.85;;
36191;SDS011;22233;42.708;23.360;2024-03-22T11:42:50;2.53;;;2.33;;
36191;SDS011;22233;42.708;23.360;2024-03-22T11:45:17;3.33;;;2.85;;
36191;SDS011;22233;42.708;23.360;2024-03-22T11:47:47;3.22;;;2.83;;
36191;SDS011;22233;42.708;23.360;2024-03-22T11:50:13;3.15;;;2.85;;
36191;SDS011;22233;42.708;23.360;2024-03-22T11:52:42;5.20;;;3.20;;
36191;SDS011;22233;42.708;23.360;2024-03-22T11:55:11;5.25;;;2.60;;
36191;SDS011;22233;42.708;23.360;2024-03-22T11:57:37;3.60;;;3.00;;
36191;SDS011;22233;42.708;23.360;2024-03-22T12:00:03;4.60;;;2.53;;
36191;SDS011;22233;42.708;23.360;2024-03-22T12:02:39;5.90;;;2.95;;
36191;SDS011;22233;42.708;23.360;2024-03-22T12:05:05;2.70;;;2.50;;
36191;SDS011;22233;42.708;23.360;2024-03-22T12:07:31;6.50;;;2.65;;
36191;SDS011;22233;42.708;23.360;2024-03-22T12:09:58;3.88;;;2.72;;
36191;SDS011;22233;42.708;23.360;2024-03-22T12:12:23;3.22;;;2.70;;
36191;SDS011;22233;42.708;23.360;2024-03-22T12:14:49;3.67;;;2.83;;
36191;SDS011;22233;42.708;23.360;2024-03-22T12:17:17;3.88;;;2.58;;
36191;SDS011;22233;42.708;23.360;2024-03-22T12:19:43;12.32;;;3.13;;
36191;SDS011;22233;42.708;23.360;2024-03-22T12:22:09;3.08;;;2.25;;
36191;SDS011;22233;42.708;23.360;2024-03-22T12:24:34;2.78;;;2.47;;
36191;SDS011;22233;42.708;23.360;2024-03-22T12:26:59;3.22;;;2.40;;
36191;SDS011;22233;42.708;23.360;2024-03-22T12:29:25;2.72;;;2.33;;
36191;SDS011;22233;42.708;23.360;2024-03-22T12:31:50;3.25;;;2.55;;
36191;SDS011;22233;42.708;23.360;2024-03-22T12:34:16;3.78;;;2.47;;
36191;SDS011;22233;42.708;23.360;2024-03-22T12:36:41;4.20;;;2.38;;
36191;SDS011;22233;42.708;23.360;2024-03-22T12:39:07;4.22;;;2.20;;
36191;SDS011;22233;42.708;23.360;2024-03-22T12:41:33;2.90;;;2.35;;
36191;SDS011;22233;42.708;23.360;2024-03-22T12:43:59;5.22;;;2.42;;
36191;SDS011;22233;42.708;23.360;2024-03-22T12:46:26;2.92;;;2.10;;
36191;SDS011;22233;42.708;23.360;2024-03-22T12:48:52;5.90;;;2.70;;
36191;SDS011;22233;42.708;23.360;2024-03-22T12:51:18;2.55;;;2.20;;
36191;SDS011;22233;42.708;23.360;2024-03-22T12:53:43;4.88;;;2.78;;
36191;SDS011;22233;42.708;23.360;2024-03-22T12:56:09;4.97;;;2.30;;
36191;SDS011;22233;42.708;23.360;2024-03-22T12:58:36;2.95;;;2.65;;
36191;SDS011;22233;42.708;23.360;2024-03-22T13:01:01;3.78;;;2.63;;
36191;SDS011;22233;42.708;23.360;2024-03-22T13:03:28;3.30;;;2.60;;
36191;SDS011;22233;42.708;23.360;2024-03-22T13:05:53;2.90;;;2.25;;
36191;SDS011;22233;42.708;23.360;2024-03-22T13:08:19;3.10;;;2.40;;
36191;SDS011;22233;42.708;23.360;2024-03-22T13:10:45;3.80;;;2.40;;
36191;SDS011;22233;42.708;23.360;2024-03-22T13:13:11;2.65;;;2.10;;
36191;SDS011;22233;42.708;23.360;2024-03-22T13:15:36;3.58;;;2.20;;
36191;SDS011;22233;42.708;23.360;2024-03-22T13:18:03;4.78;;;2.60;;
36191;SDS011;22233;42.708;23.360;2024-03-22T13:20:29;5.88;;;2.80;;
36191;SDS011;22233;42.708;23.360;2024-03-22T13:22:54;3.08;;;2.63;;
36191;SDS011;22233;42.708;23.360;2024-03-22T13:25:20;3.22;;;2.53;;
36191;SDS011;22233;42.708;23.360;2024-03-22T13:27:45;3.95;;;2.53;;
36191;SDS011;22233;42.708;23.360;2024-03-22T13:30:11;6.50;;;2.95;;
36191;SDS011;22233;42.708;23.360;2024-03-22T13:32:37;3.70;;;2.70;;
36191;SDS011;22233;42.708;23.360;2024-03-22T13:35:04;3.00;;;2.47;;
36191;SDS011;22233;42.708;23.360;2024-03-22T13:37:30;5.45;;;2.85;;
36191;SDS011;22233;42.708;23.360;2024-03-22T13:39:56;3.08;;;2.78;;
36191;SDS011;22233;42.708;23.360;2024-03-22T13:42:21;4.85;;;2.83;;
36191;SDS011;22233;42.708;23.360;2024-03-22T13:44:47;3.50;;;2.20;;
36191;SDS011;22233;42.708;23.360;2024-03-22T13:47:12;3.95;;;2.60;;
36191;SDS011;22233;42.708;23.360;2024-03-22T13:49:37;4.63;;;2.88;;
36191;SDS011;22233;42.708;23.360;2024-03-22T13:52:09;2.72;;;2.50;;
36191;SDS011;22233;42.708;23.360;2024-03-22T13:54:34;3.95;;;2.75;;
36191;SDS011;22233;42.708;23.360;2024-03-22T13:57:00;3.78;;;2.50;;
36191;SDS011;22233;42.708;23.360;2024-03-22T13:59:26;5.65;;;3.83;;
36191;SDS011;22233;42.708;23.360;2024-03-22T14:01:52;5.22;;;3.00;;
36191;SDS011;22233;42.708;23.360;2024-03-22T14:04:18;3.90;;;2.28;;
36191;SDS011;22233;42.708;23.360;2024-03-22T14:06:44;4.57;;;2.63;;
36191;SDS011;22233;42.708;23.360;2024-03-22T14:09:10;3.22;;;2.92;;
36191;SDS011;22233;42.708;23.360;2024-03-22T14:11:38;2.72;;;2.45;;
36191;SDS011;22233;42.708;23.360;2024-03-22T14:14:04;4.30;;;2.50;;
36191;SDS011;22233;42.708;23.360;2024-03-22T14:16:29;4.97;;;2.53;;
36191;SDS011;22233;42.708;23.360;2024-03-22T14:18:55;3.47;;;2.53;;
36191;SDS011;22233;42.708;23.360;2024-03-22T14:21:21;4.47;;;2.55;;
36191;SDS011;22233;42.708;23.360;2024-03-22T14:23:47;5.22;;;2.45;;